^^
Meteo Knjazevac Station Historical Data
Daily Summary for September 11, 2022 Units:  Both    English   Metric
Daily Weekly Monthly Yearly Custom
  High: Low: Average:
Temperature: 54 °F /  12.2 °C 44.2 °F /  6.8 °C 49.8 °F /  9.9 °C
Dew Point: 50.4 °F /  10.2 °C 43.9 °F /  6.6 °C 48.9 °F /  9.4 °C
Humidity: 99% 86% 97%
Wind Speed: 10.6mph /  17.1km/h - 4.5mph /  7.2km/h
Wind Gust: 12mph /  19.3km/h - -
Wind- - SSW
Pressure: 30.46 in /  1031.4 hPa 30.39 in /  1029 hPa -
Precipitation: 0.00 in /  0 mm    
Historical Graphs
 
 
Tabular Data for September 11, 2022
Time Temperature Dew Point Pressure Wind Wind Speed Wind Gust Humidity Rainfall Rate (Hourly) solar Conditions
00:04 44.2 °F /  6.8 °C 43.9 °F /  6.6 °C 30.39in /  1029hPa NNE 1.6mph /  2.6km/h 2mph /  3.2km/h 99% 0.00in /  0mm 0 W/m2
00:09 44.2 °F /  6.8 °C 44 °F /  6.7 °C 30.39in /  1029hPa NE 1.4mph /  2.3km/h 2mph /  3.2km/h 99% 0.00in /  0mm 0 W/m2
00:14 44.4 °F /  6.9 °C 44.2 °F /  6.8 °C 30.39in /  1029hPa SSE 2.7mph /  4.3km/h 3mph /  4.8km/h 99% 0.00in /  0mm 0 W/m2
00:19 44.7 °F /  7.1 °C 44.4 °F /  6.9 °C 30.39in /  1029hPa South 2.5mph /  4km/h 3mph /  4.8km/h 99% 0.00in /  0mm 0 W/m2
00:24 44.8 °F /  7.1 °C 44.5 °F /  6.9 °C 30.39in /  1029hPa SSW 2.1mph /  3.4km/h 3mph /  4.8km/h 99% 0.00in /  0mm 0 W/m2
00:29 44.9 °F /  7.2 °C 44.6 °F /  7 °C 30.39in /  1029hPa WSW 2.6mph /  4.2km/h 2.2mph /  3.5km/h 99% 0.00in /  0mm 0 W/m2
00:34 45 °F /  7.2 °C 44.7 °F /  7.1 °C 30.39in /  1029hPa WNW 1.7mph /  2.7km/h 3mph /  4.8km/h 99% 0.00in /  0mm 0 W/m2
00:39 45.3 °F /  7.4 °C 45.1 °F /  7.3 °C 30.39in /  1029hPa NNW 1.8mph /  2.9km/h 2mph /  3.2km/h 99% 0.00in /  0mm 0 W/m2
00:44 45.4 °F /  7.4 °C 45.2 °F /  7.3 °C 30.39in /  1029hPa NE 2.2mph /  3.5km/h 2mph /  3.2km/h 99% 0.00in /  0mm 0 W/m2
00:49 45.5 °F /  7.5 °C 45.2 °F /  7.3 °C 30.40in /  1029.3hPa ESE 2.8mph /  4.5km/h 2.5mph /  4km/h 99% 0.00in /  0mm 0 W/m2
00:54 45.9 °F /  7.7 °C 45.6 °F /  7.6 °C 30.40in /  1029.3hPa ENE 3.9mph /  6.3km/h 4mph /  6.4km/h 99% 0.00in /  0mm 0 W/m2
00:59 46.4 °F /  8 °C 46.1 °F /  7.8 °C 30.40in /  1029.3hPa ENE 3.2mph /  5.1km/h 5mph /  8km/h 99% 0.00in /  0mm 0 W/m2
01:04 46.7 °F /  8.2 °C 46.4 °F /  8 °C 30.40in /  1029.3hPa East 2.2mph /  3.5km/h 3mph /  4.8km/h 99% 0.00in /  0mm 0 W/m2
01:09 46.9 °F /  8.3 °C 46.7 °F /  8.2 °C 30.40in /  1029.3hPa NE 2mph /  3.2km/h 2.2mph /  3.5km/h 99% 0.00in /  0mm 0 W/m2
01:14 47.3 °F /  8.5 °C 47 °F /  8.3 °C 30.40in /  1029.3hPa NNE 4.7mph /  7.6km/h 5.1mph /  8.2km/h 99% 0.00in /  0mm 0 W/m2
01:19 47.5 °F /  8.6 °C 47.2 °F /  8.4 °C 30.40in /  1029.3hPa NE 4mph /  6.4km/h 6mph /  9.7km/h 99% 0.00in /  0mm 0 W/m2
01:24 47.7 °F /  8.7 °C 47.5 °F /  8.6 °C 30.40in /  1029.3hPa NE 5.5mph /  8.9km/h 5mph /  8km/h 99% 0.00in /  0mm 0 W/m2
01:29 47.9 °F /  8.8 °C 47.7 °F /  8.7 °C 30.40in /  1029.3hPa NE 5.8mph /  9.3km/h 6mph /  9.7km/h 99% 0.00in /  0mm 0 W/m2
01:34 48 °F /  8.9 °C 47.8 °F /  8.8 °C 30.40in /  1029.3hPa NE 6.5mph /  10.5km/h 6mph /  9.7km/h 99% 0.00in /  0mm 0 W/m2
01:39 48.2 °F /  9 °C 47.9 °F /  8.8 °C 30.40in /  1029.3hPa NE 3mph /  4.8km/h 7mph /  11.3km/h 99% 0.00in /  0mm 0 W/m2
01:44 48.2 °F /  9 °C 47.9 °F /  8.8 °C 30.39in /  1029hPa NE 2.4mph /  3.9km/h 3mph /  4.8km/h 99% 0.00in /  0mm 0 W/m2
01:49 48.4 °F /  9.1 °C 48.1 °F /  8.9 °C 30.39in /  1029hPa NNE 3.4mph /  5.5km/h 4mph /  6.4km/h 99% 0.00in /  0mm 0 W/m2
01:54 48.5 °F /  9.2 °C 48.2 °F /  9 °C 30.39in /  1029hPa NNE 5.4mph /  8.7km/h 5mph /  8km/h 99% 0.00in /  0mm 0 W/m2
01:59 48.6 °F /  9.2 °C 48.3 °F /  9.1 °C 30.39in /  1029hPa NNE 5.6mph /  9km/h 6mph /  9.7km/h 99% 0.00in /  0mm 0 W/m2
02:04 48.6 °F /  9.2 °C 48.3 °F /  9.1 °C 30.39in /  1029hPa NE 5.9mph /  9.5km/h 8mph /  12.9km/h 99% 0.00in /  0mm 0 W/m2
02:09 48.6 °F /  9.2 °C 48.3 °F /  9.1 °C 30.39in /  1029hPa NE 3.9mph /  6.3km/h 6mph /  9.7km/h 99% 0.00in /  0mm 0 W/m2
02:14 48.7 °F /  9.3 °C 48.5 °F /  9.2 °C 30.39in /  1029hPa NNE 2.9mph /  4.7km/h 5mph /  8km/h 99% 0.00in /  0mm 0 W/m2
02:19 48.9 °F /  9.4 °C 48.7 °F /  9.3 °C 30.39in /  1029hPa NNW 3.8mph /  6.1km/h 4mph /  6.4km/h 99% 0.00in /  0mm 0 W/m2
02:24 49.2 °F /  9.6 °C 48.9 °F /  9.4 °C 30.39in /  1029hPa West 6.3mph /  10.1km/h 6mph /  9.7km/h 99% 0.00in /  0mm 0 W/m2
02:29 49.2 °F /  9.6 °C 48.9 °F /  9.4 °C 30.39in /  1029hPa WSW 5mph /  8km/h 8mph /  12.9km/h 99% 0.00in /  0mm 0 W/m2
02:34 49.3 °F /  9.6 °C 49 °F /  9.4 °C 30.39in /  1029hPa WSW 2.8mph /  4.5km/h 6mph /  9.7km/h 99% 0.00in /  0mm 0 W/m2
02:39 49.2 °F /  9.6 °C 48.9 °F /  9.4 °C 30.39in /  1029hPa SW 3.9mph /  6.3km/h 4.2mph /  6.8km/h 99% 0.00in /  0mm 0 W/m2
02:44 49.1 °F /  9.5 °C 48.8 °F /  9.3 °C 30.39in /  1029hPa East 5.2mph /  8.4km/h 6mph /  9.7km/h 99% 0.00in /  0mm 0 W/m2
02:49 49.3 °F /  9.6 °C 49 °F /  9.4 °C 30.39in /  1029hPa East 4.5mph /  7.2km/h 6mph /  9.7km/h 99% 0.00in /  0mm 0 W/m2
02:54 49.6 °F /  9.8 °C 49.3 °F /  9.6 °C 30.39in /  1029hPa East 5mph /  8km/h 5mph /  8km/h 99% 0.00in /  0mm 0 W/m2
02:59 49.6 °F /  9.8 °C 49.4 °F /  9.7 °C 30.39in /  1029hPa ENE 5.2mph /  8.4km/h 6mph /  9.7km/h 99% 0.00in /  0mm 0 W/m2
03:04 49.8 °F /  9.9 °C 49.6 °F /  9.8 °C 30.39in /  1029hPa ENE 4.5mph /  7.2km/h 6mph /  9.7km/h 99% 0.00in /  0mm 0 W/m2
03:09 49.9 °F /  9.9 °C 49.7 °F /  9.8 °C 30.39in /  1029hPa East 2.6mph /  4.2km/h 5mph /  8km/h 99% 0.00in /  0mm 0 W/m2
03:14 50 °F /  10 °C 49.7 °F /  9.8 °C 30.39in /  1029hPa ENE 3.4mph /  5.5km/h 3.6mph /  5.8km/h 99% 0.00in /  0mm 0 W/m2
03:19 50 °F /  10 °C 49.7 °F /  9.8 °C 30.39in /  1029hPa NE 3.4mph /  5.5km/h 4mph /  6.4km/h 99% 0.00in /  0mm 0 W/m2
03:24 50 °F /  10 °C 49.7 °F /  9.8 °C 30.39in /  1029hPa NNE 2.6mph /  4.2km/h 4mph /  6.4km/h 99% 0.00in /  0mm 0 W/m2
03:29 50 °F /  10 °C 49.7 °F /  9.8 °C 30.39in /  1029hPa NNE 2.9mph /  4.7km/h 3mph /  4.8km/h 99% 0.00in /  0mm 0 W/m2
03:34 50 °F /  10 °C 49.7 °F /  9.8 °C 30.40in /  1029.3hPa NE 2.8mph /  4.5km/h 3mph /  4.8km/h 99% 0.00in /  0mm 0 W/m2
03:39 50 °F /  10 °C 49.7 °F /  9.8 °C 30.40in /  1029.3hPa NNE 2.3mph /  3.7km/h 3mph /  4.8km/h 99% 0.00in /  0mm 0 W/m2
03:44 50 °F /  10 °C 49.7 °F /  9.8 °C 30.40in /  1029.3hPa North 2.2mph /  3.5km/h 2mph /  3.2km/h 99% 0.00in /  0mm 0 W/m2
03:49 50.2 °F /  10.1 °C 49.9 °F /  9.9 °C 30.40in /  1029.3hPa WSW 2.6mph /  4.2km/h 3mph /  4.8km/h 99% 0.00in /  0mm 0 W/m2
03:54 50.2 °F /  10.1 °C 49.9 °F /  9.9 °C 30.40in /  1029.3hPa WSW 2.7mph /  4.3km/h 3mph /  4.8km/h 99% 0.00in /  0mm 0 W/m2
03:59 50.3 °F /  10.2 °C 50 °F /  10 °C 30.40in /  1029.3hPa West 2.9mph /  4.7km/h 3mph /  4.8km/h 99% 0.00in /  0mm 0 W/m2
04:04 50.4 °F /  10.2 °C 50.1 °F /  10.1 °C 30.40in /  1029.3hPa West 3.5mph /  5.6km/h 4mph /  6.4km/h 99% 0.00in /  0mm 0 W/m2
04:09 50.5 °F /  10.3 °C 50.3 °F /  10.2 °C 30.40in /  1029.3hPa WSW 5.8mph /  9.3km/h 6mph /  9.7km/h 99% 0.00in /  0mm 0 W/m2
04:14 50.7 °F /  10.4 °C 50.4 °F /  10.2 °C 30.40in /  1029.3hPa SW 6.7mph /  10.8km/h 7mph /  11.3km/h 99% 0.00in /  0mm 0 W/m2
04:19 50.9 °F /  10.5 °C 50.4 °F /  10.2 °C 30.40in /  1029.3hPa SW 6.7mph /  10.8km/h 8mph /  12.9km/h 98.1% 0.00in /  0mm 0 W/m2
04:24 50.9 °F /  10.5 °C 50.2 °F /  10.1 °C 30.40in /  1029.3hPa WSW 8.6mph /  13.8km/h 7.8mph /  12.6km/h 97.2% 0.00in /  0mm 0 W/m2
04:29 51.1 °F /  10.6 °C 50 °F /  10 °C 30.40in /  1029.3hPa WSW 9.3mph /  15km/h 10mph /  16.1km/h 96% 0.00in /  0mm 0 W/m2
04:34 51.2 °F /  10.7 °C 50 °F /  10 °C 30.40in /  1029.3hPa WSW 8.4mph /  13.5km/h 10mph /  16.1km/h 95.5% 0.00in /  0mm 0 W/m2
04:39 51.4 °F /  10.8 °C 50.1 °F /  10.1 °C 30.40in /  1029.3hPa SW 5.7mph /  9.2km/h 9mph /  14.5km/h 95% 0.00in /  0mm 0 W/m2
04:44 51.4 °F /  10.8 °C 50.1 °F /  10.1 °C 30.40in /  1029.3hPa SW 6mph /  9.7km/h 7mph /  11.3km/h 95.3% 0.00in /  0mm 0 W/m2
04:49 51.3 °F /  10.7 °C 50.2 °F /  10.1 °C 30.40in /  1029.3hPa SW 7.1mph /  11.4km/h 7mph /  11.3km/h 96% 0.00in /  0mm 0 W/m2
04:54 51.3 °F /  10.7 °C 50.2 °F /  10.1 °C 30.40in /  1029.3hPa SW 4.6mph /  7.4km/h 8mph /  12.9km/h 96% 0.00in /  0mm 0 W/m2
04:59 51.3 °F /  10.7 °C 50.2 °F /  10.1 °C 30.40in /  1029.3hPa SW 3.9mph /  6.3km/h 5mph /  8km/h 96% 0.00in /  0mm 0 W/m2
05:04 51.1 °F /  10.6 °C 50 °F /  10 °C 30.40in /  1029.3hPa SW 5mph /  8km/h 5mph /  8km/h 96% 0.00in /  0mm 0 W/m2
05:09 51.1 °F /  10.6 °C 50 °F /  10 °C 30.40in /  1029.3hPa SW 4mph /  6.4km/h 6mph /  9.7km/h 96% 0.00in /  0mm 0 W/m2
05:14 51.1 °F /  10.6 °C 50 °F /  10 °C 30.40in /  1029.3hPa SSW 2.7mph /  4.3km/h 5mph /  8km/h 96% 0.00in /  0mm 0 W/m2
05:19 51 °F /  10.6 °C 49.9 °F /  9.9 °C 30.40in /  1029.3hPa SW 2.5mph /  4km/h 3mph /  4.8km/h 96% 0.00in /  0mm 0 W/m2
05:24 50.8 °F /  10.4 °C 49.7 °F /  9.8 °C 30.41in /  1029.7hPa SW 2.4mph /  3.9km/h 3mph /  4.8km/h 96% 0.00in /  0mm 0 W/m2
05:29 50.7 °F /  10.4 °C 49.6 °F /  9.8 °C 30.41in /  1029.7hPa SW 2.3mph /  3.7km/h 3mph /  4.8km/h 96% 0.00in /  0mm 0 W/m2
05:34 50.7 °F /  10.4 °C 49.6 °F /  9.8 °C 30.41in /  1029.7hPa SW 2mph /  3.2km/h 3mph /  4.8km/h 96% 0.00in /  0mm 0 W/m2
05:39 50.6 °F /  10.3 °C 49.5 °F /  9.7 °C 30.41in /  1029.7hPa West 1.6mph /  2.6km/h 3mph /  4.8km/h 96% 0.00in /  0mm 0 W/m2
05:44 50.4 °F /  10.2 °C 49.3 °F /  9.6 °C 30.41in /  1029.7hPa WNW 2.3mph /  3.7km/h 3mph /  4.8km/h 96% 0.00in /  0mm 0 W/m2
05:49 50.3 °F /  10.2 °C 49.2 °F /  9.6 °C 30.41in /  1029.7hPa NW 1.4mph /  2.3km/h 3mph /  4.8km/h 96% 0.00in /  0mm 0 W/m2
05:54 50.2 °F /  10.1 °C 49.2 °F /  9.6 °C 30.41in /  1029.7hPa WNW 0.7mph /  1.1km/h 2mph /  3.2km/h 96.4% 0.00in /  0mm 0 W/m2
05:59 50 °F /  10 °C 49.2 °F /  9.6 °C 30.41in /  1029.7hPa West 3mph /  4.8km/h 3.4mph /  5.5km/h 96.9% 0.00in /  0mm 0 W/m2
06:04 49.7 °F /  9.8 °C 49.2 °F /  9.6 °C 30.42in /  1030hPa West 2.4mph /  3.9km/h 5mph /  8km/h 98% 0.00in /  0mm 0 W/m2
06:09 49.6 °F /  9.8 °C 49 °F /  9.4 °C 30.42in /  1030hPa WNW 3mph /  4.8km/h 5mph /  8km/h 98% 0.00in /  0mm 0 W/m2
06:14 49.5 °F /  9.7 °C 48.9 °F /  9.4 °C 30.42in /  1030hPa West 3mph /  4.8km/h 3mph /  4.8km/h 98% 0.00in /  0mm 1 W/m2
06:19 49.5 °F /  9.7 °C 49 °F /  9.4 °C 30.42in /  1030hPa WSW 3mph /  4.8km/h 4mph /  6.4km/h 98.2% 0.00in /  0mm 2 W/m2
06:24 49.5 °F /  9.7 °C 48.9 °F /  9.4 °C 30.42in /  1030hPa WSW 3.7mph /  6km/h 3.4mph /  5.5km/h 98% 0.00in /  0mm 2 W/m2
06:29 49.5 °F /  9.7 °C 48.9 °F /  9.4 °C 30.42in /  1030hPa WSW 3.9mph /  6.3km/h 5mph /  8km/h 98% 0.00in /  0mm 4 W/m2
06:34 49.4 °F /  9.7 °C 48.8 °F /  9.3 °C 30.42in /  1030hPa SW 3.1mph /  5km/h 4mph /  6.4km/h 98% 0.00in /  0mm 6 W/m2
06:39 49.2 °F /  9.6 °C 48.6 °F /  9.2 °C 30.43in /  1030.4hPa SW 3.1mph /  5km/h 4mph /  6.4km/h 98% 0.00in /  0mm 7 W/m2
06:44 49.1 °F /  9.5 °C 48.6 °F /  9.2 °C 30.43in /  1030.4hPa SW 3.2mph /  5.1km/h 3mph /  4.8km/h 98% 0.00in /  0mm 10 W/m2
06:49 49.2 °F /  9.6 °C 48.8 °F /  9.3 °C 30.43in /  1030.4hPa SW 2.3mph /  3.7km/h 3mph /  4.8km/h 98.6% 0.00in /  0mm 15 W/m2
06:54 49.3 °F /  9.6 °C 49 °F /  9.4 °C 30.43in /  1030.4hPa SW 3.5mph /  5.6km/h 4mph /  6.4km/h 99% 0.00in /  0mm 19 W/m2
06:59 49.4 °F /  9.7 °C 49.1 °F /  9.5 °C 30.43in /  1030.4hPa SW 5.1mph /  8.2km/h 4mph /  6.4km/h 99% 0.00in /  0mm 20 W/m2
07:04 49.6 °F /  9.8 °C 49.3 °F /  9.6 °C 30.43in /  1030.4hPa WSW 3.2mph /  5.1km/h 7mph /  11.3km/h 99% 0.00in /  0mm 19 W/m2
07:09 49.7 °F /  9.8 °C 49.5 °F /  9.7 °C 30.43in /  1030.4hPa West 2.6mph /  4.2km/h 4mph /  6.4km/h 99% 0.00in /  0mm 23 W/m2
07:14 49.8 °F /  9.9 °C 49.6 °F /  9.8 °C 30.43in /  1030.4hPa West 2.9mph /  4.7km/h 3mph /  4.8km/h 99% 0.00in /  0mm 28 W/m2
07:19 49.9 °F /  9.9 °C 49.6 °F /  9.8 °C 30.43in /  1030.4hPa WSW 3.3mph /  5.3km/h 3mph /  4.8km/h 98.8% 0.00in /  0mm 34 W/m2
07:24 50 °F /  10 °C 49.5 °F /  9.7 °C 30.44in /  1030.7hPa SW 3.5mph /  5.6km/h 5mph /  8km/h 98% 0.00in /  0mm 36 W/m2
07:29 50.2 °F /  10.1 °C 49.6 °F /  9.8 °C 30.44in /  1030.7hPa WSW 3mph /  4.8km/h 5mph /  8km/h 98% 0.00in /  0mm 43 W/m2
07:34 50.3 °F /  10.2 °C 49.7 °F /  9.8 °C 30.44in /  1030.7hPa WSW 5.5mph /  8.9km/h 5mph /  8km/h 98% 0.00in /  0mm 51 W/m2
07:39 50.7 °F /  10.4 °C 49.8 °F /  9.9 °C 30.44in /  1030.7hPa WSW 8.3mph /  13.4km/h 7mph /  11.3km/h 96.8% 0.00in /  0mm 52 W/m2
07:44 51.1 °F /  10.6 °C 49.8 °F /  9.9 °C 30.44in /  1030.7hPa WSW 7.4mph /  11.9km/h 10mph /  16.1km/h 95.4% 0.00in /  0mm 48 W/m2
07:49 51.4 °F /  10.8 °C 50 °F /  10 °C 30.45in /  1031hPa WSW 7.3mph /  11.7km/h 10mph /  16.1km/h 94.7% 0.00in /  0mm 51 W/m2
07:54 51.7 °F /  10.9 °C 50 °F /  10 °C 30.45in /  1031hPa West 6.9mph /  11.1km/h 9mph /  14.5km/h 94% 0.00in /  0mm 62 W/m2
07:59 51.9 °F /  11.1 °C 50 °F /  10 °C 30.45in /  1031hPa West 8.2mph /  13.2km/h 8mph /  12.9km/h 93.4% 0.00in /  0mm 67 W/m2
08:04 52.2 °F /  11.2 °C 50.2 °F /  10.1 °C 30.45in /  1031hPa West 8.6mph /  13.8km/h 9mph /  14.5km/h 93% 0.00in /  0mm 84 W/m2
08:09 52.3 °F /  11.3 °C 49.8 °F /  9.9 °C 30.45in /  1031hPa West 8.4mph /  13.5km/h 10mph /  16.1km/h 91.1% 0.00in /  0mm 102 W/m2
08:14 52.6 °F /  11.4 °C 50 °F /  10 °C 30.45in /  1031hPa West 8.2mph /  13.2km/h 10mph /  16.1km/h 91% 0.00in /  0mm 112 W/m2
08:19 52.8 °F /  11.6 °C 50.1 °F /  10.1 °C 30.45in /  1031hPa West 9.3mph /  15km/h 10mph /  16.1km/h 90.6% 0.00in /  0mm 110 W/m2
08:24 53 °F /  11.7 °C 50.1 °F /  10.1 °C 30.45in /  1031hPa West 8.4mph /  13.5km/h 10mph /  16.1km/h 90% 0.00in /  0mm 98 W/m2
08:29 53.1 °F /  11.7 °C 50.1 °F /  10.1 °C 30.45in /  1031hPa West 8.6mph /  13.8km/h 12mph /  19.3km/h 89.5% 0.00in /  0mm 98 W/m2
08:34 53.2 °F /  11.8 °C 50.1 °F /  10.1 °C 30.45in /  1031hPa WSW 7.5mph /  12.1km/h 12mph /  19.3km/h 89% 0.00in /  0mm 97 W/m2
08:39 53.4 °F /  11.9 °C 50.2 °F /  10.1 °C 30.45in /  1031hPa WSW 8.3mph /  13.4km/h 10mph /  16.1km/h 88.8% 0.00in /  0mm 97 W/m2
08:44 53.4 °F /  11.9 °C 50 °F /  10 °C 30.45in /  1031hPa WSW 8.2mph /  13.2km/h 10mph /  16.1km/h 88.1% 0.00in /  0mm 91 W/m2
08:49 53.5 °F /  11.9 °C 50 °F /  10 °C 30.46in /  1031.4hPa WSW 7.1mph /  11.4km/h 9mph /  14.5km/h 88% 0.00in /  0mm 99 W/m2
08:54 53.6 °F /  12 °C 50.1 °F /  10.1 °C 30.46in /  1031.4hPa WSW 8.5mph /  13.7km/h 7mph /  11.3km/h 88% 0.00in /  0mm 168 W/m2
08:59 53.7 °F /  12.1 °C 50.2 °F /  10.1 °C 30.46in /  1031.4hPa West 7.4mph /  11.9km/h 10mph /  16.1km/h 88% 0.00in /  0mm 176 W/m2
09:04 53.9 °F /  12.2 °C 50.3 °F /  10.2 °C 30.45in /  1031hPa West 9.2mph /  14.8km/h 8mph /  12.9km/h 87.6% 0.00in /  0mm 162 W/m2
09:09 54 °F /  12.2 °C 49.9 °F /  9.9 °C 30.45in /  1031hPa West 10.6mph /  17.1km/h 12mph /  19.3km/h 86% 0.00in /  0mm 146 W/m2
09:14 54 °F /  12.2 °C 49.9 °F /  9.9 °C 30.45in /  1031hPa West 10mph /  16.1km/h 12mph /  19.3km/h 86% 0.00in /  0mm 208 W/m2
Knjazevac, Serbia
Compliments of Weather Underground - 2 mb